sensor_id;sensor_type;location;lat;lon;timestamp;P1;durP1;ratioP1;P2;durP2;ratioP2
76194;SDS011;64964;48.694;21.206;2023-03-01T00:01:01;11.60;;;6.87;;
76194;SDS011;64964;48.694;21.206;2023-03-01T00:03:28;15.25;;;6.57;;
76194;SDS011;64964;48.694;21.206;2023-03-01T00:05:53;12.17;;;6.33;;
76194;SDS011;64964;48.694;21.206;2023-03-01T00:08:19;12.50;;;6.33;;
76194;SDS011;64964;48.694;21.206;2023-03-01T00:10:44;12.00;;;6.50;;
76194;SDS011;64964;48.694;21.206;2023-03-01T00:13:09;11.67;;;5.80;;
76194;SDS011;64964;48.694;21.206;2023-03-01T00:15:37;10.93;;;5.87;;
76194;SDS011;64964;48.694;21.206;2023-03-01T00:18:04;13.88;;;5.88;;
76194;SDS011;64964;48.694;21.206;2023-03-01T00:20:29;12.00;;;6.60;;
76194;SDS011;64964;48.694;21.206;2023-03-01T00:22:54;12.77;;;6.23;;
76194;SDS011;64964;48.694;21.206;2023-03-01T00:25:20;12.10;;;6.23;;
76194;SDS011;64964;48.694;21.206;2023-03-01T00:27:46;13.63;;;6.10;;
76194;SDS011;64964;48.694;21.206;2023-03-01T00:30:11;10.73;;;5.47;;
76194;SDS011;64964;48.694;21.206;2023-03-01T00:32:37;14.07;;;5.60;;
76194;SDS011;64964;48.694;21.206;2023-03-01T00:35:03;12.57;;;6.40;;
76194;SDS011;64964;48.694;21.206;2023-03-01T00:37:28;11.45;;;5.95;;
76194;SDS011;64964;48.694;21.206;2023-03-01T00:39:53;13.57;;;6.70;;
76194;SDS011;64964;48.694;21.206;2023-03-01T00:42:19;14.17;;;6.53;;
76194;SDS011;64964;48.694;21.206;2023-03-01T00:44:44;15.73;;;6.10;;
76194;SDS011;64964;48.694;21.206;2023-03-01T00:47:09;10.63;;;5.67;;
76194;SDS011;64964;48.694;21.206;2023-03-01T00:49:35;11.90;;;5.77;;
76194;SDS011;64964;48.694;21.206;2023-03-01T00:52:00;12.55;;;5.88;;
76194;SDS011;64964;48.694;21.206;2023-03-01T00:54:25;12.03;;;5.63;;
76194;SDS011;64964;48.694;21.206;2023-03-01T00:56:51;11.07;;;5.73;;
76194;SDS011;64964;48.694;21.206;2023-03-01T00:59:16;11.47;;;5.93;;
76194;SDS011;64964;48.694;21.206;2023-03-01T01:01:41;11.40;;;6.23;;
76194;SDS011;64964;48.694;21.206;2023-03-01T01:04:08;13.00;;;6.63;;
76194;SDS011;64964;48.694;21.206;2023-03-01T01:06:36;13.82;;;6.43;;
76194;SDS011;64964;48.694;21.206;2023-03-01T01:09:04;10.43;;;5.65;;
76194;SDS011;64964;48.694;21.206;2023-03-01T01:11:31;12.55;;;6.18;;
76194;SDS011;64964;48.694;21.206;2023-03-01T01:13:57;12.53;;;5.77;;
76194;SDS011;64964;48.694;21.206;2023-03-01T01:16:24;11.82;;;6.00;;
76194;SDS011;64964;48.694;21.206;2023-03-01T01:18:51;11.20;;;5.85;;
76194;SDS011;64964;48.694;21.206;2023-03-01T01:21:18;13.63;;;6.50;;
76194;SDS011;64964;48.694;21.206;2023-03-01T01:23:45;13.07;;;6.10;;
76194;SDS011;64964;48.694;21.206;2023-03-01T01:26:12;11.13;;;5.70;;
76194;SDS011;64964;48.694;21.206;2023-03-01T01:28:43;14.70;;;5.95;;
76194;SDS011;64964;48.694;21.206;2023-03-01T01:31:08;14.20;;;6.47;;
76194;SDS011;64964;48.694;21.206;2023-03-01T01:33:35;11.50;;;6.30;;
76194;SDS011;64964;48.694;21.206;2023-03-01T01:36:02;13.57;;;7.10;;
76194;SDS011;64964;48.694;21.206;2023-03-01T01:38:28;14.43;;;6.65;;
76194;SDS011;64964;48.694;21.206;2023-03-01T01:40:53;13.70;;;6.07;;
76194;SDS011;64964;48.694;21.206;2023-03-01T01:43:21;13.47;;;6.50;;
76194;SDS011;64964;48.694;21.206;2023-03-01T01:45:53;14.07;;;7.03;;
76194;SDS011;64964;48.694;21.206;2023-03-01T01:48:22;13.55;;;6.72;;
76194;SDS011;64964;48.694;21.206;2023-03-01T01:50:56;12.85;;;7.07;;
76194;SDS011;64964;48.694;21.206;2023-03-01T01:53:25;13.70;;;7.05;;
76194;SDS011;64964;48.694;21.206;2023-03-01T01:55:53;15.20;;;6.67;;
76194;SDS011;64964;48.694;21.206;2023-03-01T01:58:24;13.73;;;6.70;;
76194;SDS011;64964;48.694;21.206;2023-03-01T02:00:52;14.98;;;6.75;;
76194;SDS011;64964;48.694;21.206;2023-03-01T02:03:20;16.67;;;7.57;;
76194;SDS011;64964;48.694;21.206;2023-03-01T02:08:37;15.38;;;7.85;;
76194;SDS011;64964;48.694;21.206;2023-03-01T02:11:06;12.65;;;6.68;;
76194;SDS011;64964;48.694;21.206;2023-03-01T02:13:34;13.63;;;6.43;;
76194;SDS011;64964;48.694;21.206;2023-03-01T02:16:03;15.20;;;6.82;;
76194;SDS011;64964;48.694;21.206;2023-03-01T02:18:33;12.37;;;6.33;;
76194;SDS011;64964;48.694;21.206;2023-03-01T02:23:23;11.13;;;5.57;;
76194;SDS011;64964;48.694;21.206;2023-03-01T02:25:56;11.83;;;6.03;;
76194;SDS011;64964;48.694;21.206;2023-03-01T02:28:32;12.65;;;6.57;;
76194;SDS011;64964;48.694;21.206;2023-03-01T02:31:00;11.93;;;5.80;;
76194;SDS011;64964;48.694;21.206;2023-03-01T02:33:45;13.60;;;6.35;;
76194;SDS011;64964;48.694;21.206;2023-03-01T02:36:14;12.65;;;5.43;;
76194;SDS011;64964;48.694;21.206;2023-03-01T02:38:42;14.30;;;6.07;;
76194;SDS011;64964;48.694;21.206;2023-03-01T02:41:08;10.80;;;6.00;;
76194;SDS011;64964;48.694;21.206;2023-03-01T02:43:38;12.03;;;5.63;;
76194;SDS011;64964;48.694;21.206;2023-03-01T02:46:05;13.95;;;6.03;;
76194;SDS011;64964;48.694;21.206;2023-03-01T02:48:40;10.35;;;5.75;;
76194;SDS011;64964;48.694;21.206;2023-03-01T02:53:59;12.77;;;5.90;;
76194;SDS011;64964;48.694;21.206;2023-03-01T02:56:44;9.45;;;5.15;;
76194;SDS011;64964;48.694;21.206;2023-03-01T02:59:14;10.65;;;5.15;;
76194;SDS011;64964;48.694;21.206;2023-03-01T03:01:41;10.75;;;5.28;;
76194;SDS011;64964;48.694;21.206;2023-03-01T03:04:08;10.43;;;5.50;;
76194;SDS011;64964;48.694;21.206;2023-03-01T03:06:35;11.20;;;5.25;;
76194;SDS011;64964;48.694;21.206;2023-03-01T03:09:02;10.77;;;5.25;;
76194;SDS011;64964;48.694;21.206;2023-03-01T03:11:28;9.90;;;4.90;;
76194;SDS011;64964;48.694;21.206;2023-03-01T03:13:54;10.60;;;5.03;;
76194;SDS011;64964;48.694;21.206;2023-03-01T03:16:20;12.10;;;5.50;;
76194;SDS011;64964;48.694;21.206;2023-03-01T03:18:46;9.07;;;4.83;;
76194;SDS011;64964;48.694;21.206;2023-03-01T03:21:12;7.55;;;4.57;;
76194;SDS011;64964;48.694;21.206;2023-03-01T03:23:38;8.40;;;4.78;;
76194;SDS011;64964;48.694;21.206;2023-03-01T03:26:04;11.30;;;4.77;;
76194;SDS011;64964;48.694;21.206;2023-03-01T03:28:31;10.35;;;4.82;;
76194;SDS011;64964;48.694;21.206;2023-03-01T03:30:57;9.65;;;4.95;;
76194;SDS011;64964;48.694;21.206;2023-03-01T03:33:23;9.75;;;4.55;;
76194;SDS011;64964;48.694;21.206;2023-03-01T03:35:49;8.75;;;4.32;;
76194;SDS011;64964;48.694;21.206;2023-03-01T03:38:17;11.47;;;5.10;;
76194;SDS011;64964;48.694;21.206;2023-03-01T03:40:51;9.85;;;4.45;;
76194;SDS011;64964;48.694;21.206;2023-03-01T03:43:26;6.90;;;3.08;;
76194;SDS011;64964;48.694;21.206;2023-03-01T03:45:51;8.93;;;4.90;;
76194;SDS011;64964;48.694;21.206;2023-03-01T03:48:17;10.00;;;4.50;;
76194;SDS011;64964;48.694;21.206;2023-03-01T03:50:47;9.82;;;4.95;;
76194;SDS011;64964;48.694;21.206;2023-03-01T03:53:14;10.57;;;4.90;;
76194;SDS011;64964;48.694;21.206;2023-03-01T03:55:40;10.35;;;4.85;;
76194;SDS011;64964;48.694;21.206;2023-03-01T03:58:07;10.50;;;5.47;;
76194;SDS011;64964;48.694;21.206;2023-03-01T04:00:35;11.93;;;5.38;;
76194;SDS011;64964;48.694;21.206;2023-03-01T04:03:02;12.90;;;5.65;;
76194;SDS011;64964;48.694;21.206;2023-03-01T04:05:28;13.48;;;6.15;;
76194;SDS011;64964;48.694;21.206;2023-03-01T04:07:54;14.07;;;6.47;;
76194;SDS011;64964;48.694;21.206;2023-03-01T04:10:38;14.70;;;6.57;;
76194;SDS011;64964;48.694;21.206;2023-03-01T04:13:06;11.13;;;5.13;;
76194;SDS011;64964;48.694;21.206;2023-03-01T04:15:34;13.18;;;5.70;;
76194;SDS011;64964;48.694;21.206;2023-03-01T04:17:59;17.35;;;6.25;;
76194;SDS011;64964;48.694;21.206;2023-03-01T04:20:29;11.57;;;6.10;;
76194;SDS011;64964;48.694;21.206;2023-03-01T04:25:46;16.58;;;6.40;;
76194;SDS011;64964;48.694;21.206;2023-03-01T04:28:40;12.10;;;6.13;;
76194;SDS011;64964;48.694;21.206;2023-03-01T04:31:11;12.13;;;6.07;;
76194;SDS011;64964;48.694;21.206;2023-03-01T04:33:39;12.73;;;6.35;;
76194;SDS011;64964;48.694;21.206;2023-03-01T04:36:06;12.57;;;5.88;;
76194;SDS011;64964;48.694;21.206;2023-03-01T04:38:33;11.48;;;6.05;;
76194;SDS011;64964;48.694;21.206;2023-03-01T04:41:01;12.73;;;6.43;;
76194;SDS011;64964;48.694;21.206;2023-03-01T04:43:28;12.38;;;5.68;;
76194;SDS011;64964;48.694;21.206;2023-03-01T04:45:53;11.93;;;5.77;;
76194;SDS011;64964;48.694;21.206;2023-03-01T04:48:19;12.20;;;5.63;;
76194;SDS011;64964;48.694;21.206;2023-03-01T04:50:44;13.52;;;6.55;;
76194;SDS011;64964;48.694;21.206;2023-03-01T04:53:09;13.87;;;5.80;;
76194;SDS011;64964;48.694;21.206;2023-03-01T04:55:35;11.50;;;6.00;;
76194;SDS011;64964;48.694;21.206;2023-03-01T04:58:00;15.20;;;6.00;;
76194;SDS011;64964;48.694;21.206;2023-03-01T05:00:25;16.13;;;5.87;;
76194;SDS011;64964;48.694;21.206;2023-03-01T05:02:52;12.63;;;5.82;;
76194;SDS011;64964;48.694;21.206;2023-03-01T05:05:30;9.73;;;5.37;;
76194;SDS011;64964;48.694;21.206;2023-03-01T05:08:02;11.93;;;6.05;;
76194;SDS011;64964;48.694;21.206;2023-03-01T05:10:33;11.00;;;5.28;;
76194;SDS011;64964;48.694;21.206;2023-03-01T05:13:00;11.07;;;5.15;;
76194;SDS011;64964;48.694;21.206;2023-03-01T05:15:27;11.02;;;5.55;;
76194;SDS011;64964;48.694;21.206;2023-03-01T05:17:55;9.83;;;5.13;;
76194;SDS011;64964;48.694;21.206;2023-03-01T05:20:24;11.07;;;5.60;;
76194;SDS011;64964;48.694;21.206;2023-03-01T05:22:51;10.18;;;5.07;;
76194;SDS011;64964;48.694;21.206;2023-03-01T05:25:19;10.75;;;5.07;;
76194;SDS011;64964;48.694;21.206;2023-03-01T05:27:46;13.45;;;5.60;;
76194;SDS011;64964;48.694;21.206;2023-03-01T05:30:12;10.50;;;4.90;;
76194;SDS011;64964;48.694;21.206;2023-03-01T05:32:41;10.77;;;5.43;;
76194;SDS011;64964;48.694;21.206;2023-03-01T05:35:12;10.23;;;5.25;;
76194;SDS011;64964;48.694;21.206;2023-03-01T05:37:40;11.32;;;5.07;;
76194;SDS011;64964;48.694;21.206;2023-03-01T05:40:07;10.70;;;4.77;;
76194;SDS011;64964;48.694;21.206;2023-03-01T05:42:40;9.82;;;5.38;;
76194;SDS011;64964;48.694;21.206;2023-03-01T05:45:07;10.30;;;5.28;;
76194;SDS011;64964;48.694;21.206;2023-03-01T05:47:34;10.75;;;5.18;;
76194;SDS011;64964;48.694;21.206;2023-03-01T05:50:00;11.82;;;5.40;;
76194;SDS011;64964;48.694;21.206;2023-03-01T05:52:26;11.33;;;5.50;;
76194;SDS011;64964;48.694;21.206;2023-03-01T05:54:51;11.53;;;5.53;;
76194;SDS011;64964;48.694;21.206;2023-03-01T05:57:17;9.02;;;4.63;;
76194;SDS011;64964;48.694;21.206;2023-03-01T05:59:42;14.43;;;6.40;;
76194;SDS011;64964;48.694;21.206;2023-03-01T06:02:07;11.67;;;5.50;;
76194;SDS011;64964;48.694;21.206;2023-03-01T06:04:33;10.70;;;5.43;;
76194;SDS011;64964;48.694;21.206;2023-03-01T06:06:58;10.57;;;5.37;;
76194;SDS011;64964;48.694;21.206;2023-03-01T06:09:23;12.17;;;5.30;;
76194;SDS011;64964;48.694;21.206;2023-03-01T06:11:50;10.85;;;5.25;;
76194;SDS011;64964;48.694;21.206;2023-03-01T06:14:16;11.57;;;4.95;;
76194;SDS011;64964;48.694;21.206;2023-03-01T06:16:41;10.63;;;5.30;;
76194;SDS011;64964;48.694;21.206;2023-03-01T06:19:07;12.77;;;5.40;;
76194;SDS011;64964;48.694;21.206;2023-03-01T06:21:32;11.37;;;5.07;;
76194;SDS011;64964;48.694;21.206;2023-03-01T06:23:57;11.17;;;5.77;;
76194;SDS011;64964;48.694;21.206;2023-03-01T06:26:23;11.67;;;5.93;;
76194;SDS011;64964;48.694;21.206;2023-03-01T06:28:48;10.48;;;5.32;;
76194;SDS011;64964;48.694;21.206;2023-03-01T06:31:13;12.63;;;5.80;;
76194;SDS011;64964;48.694;21.206;2023-03-01T06:33:39;10.97;;;5.63;;
76194;SDS011;64964;48.694;21.206;2023-03-01T06:36:04;8.10;;;4.30;;
76194;SDS011;64964;48.694;21.206;2023-03-01T06:38:30;9.95;;;5.15;;
76194;SDS011;64964;48.694;21.206;2023-03-01T06:40:55;14.23;;;5.80;;
76194;SDS011;64964;48.694;21.206;2023-03-01T06:43:22;13.73;;;5.10;;
76194;SDS011;64964;48.694;21.206;2023-03-01T06:45:48;10.23;;;4.80;;
76194;SDS011;64964;48.694;21.206;2023-03-01T06:48:14;12.88;;;5.50;;
76194;SDS011;64964;48.694;21.206;2023-03-01T06:50:39;9.70;;;5.13;;
76194;SDS011;64964;48.694;21.206;2023-03-01T06:53:04;12.97;;;5.67;;
76194;SDS011;64964;48.694;21.206;2023-03-01T06:55:30;12.03;;;5.50;;
76194;SDS011;64964;48.694;21.206;2023-03-01T06:57:59;10.17;;;4.97;;
76194;SDS011;64964;48.694;21.206;2023-03-01T07:00:26;8.20;;;4.53;;
76194;SDS011;64964;48.694;21.206;2023-03-01T07:02:52;9.50;;;5.43;;
76194;SDS011;64964;48.694;21.206;2023-03-01T07:05:18;12.27;;;5.63;;
76194;SDS011;64964;48.694;21.206;2023-03-01T07:07:44;10.57;;;4.93;;
76194;SDS011;64964;48.694;21.206;2023-03-01T07:10:09;9.18;;;4.47;;
76194;SDS011;64964;48.694;21.206;2023-03-01T07:12:35;11.68;;;5.30;;
76194;SDS011;64964;48.694;21.206;2023-03-01T07:15:01;10.03;;;5.13;;
76194;SDS011;64964;48.694;21.206;2023-03-01T07:17:27;10.60;;;5.25;;
76194;SDS011;64964;48.694;21.206;2023-03-01T07:19:52;10.83;;;5.67;;
76194;SDS011;64964;48.694;21.206;2023-03-01T07:22:18;10.67;;;5.07;;
76194;SDS011;64964;48.694;21.206;2023-03-01T07:24:43;8.37;;;4.77;;
76194;SDS011;64964;48.694;21.206;2023-03-01T07:27:09;9.93;;;5.13;;
76194;SDS011;64964;48.694;21.206;2023-03-01T07:29:35;9.50;;;5.23;;
76194;SDS011;64964;48.694;21.206;2023-03-01T07:32:04;9.07;;;4.95;;
76194;SDS011;64964;48.694;21.206;2023-03-01T07:34:30;8.52;;;4.78;;
76194;SDS011;64964;48.694;21.206;2023-03-01T07:36:56;8.97;;;5.17;;
76194;SDS011;64964;48.694;21.206;2023-03-01T07:39:21;10.02;;;5.40;;
76194;SDS011;64964;48.694;21.206;2023-03-01T07:41:48;8.87;;;5.33;;
76194;SDS011;64964;48.694;21.206;2023-03-01T07:44:13;10.23;;;5.20;;
76194;SDS011;64964;48.694;21.206;2023-03-01T07:46:40;9.15;;;5.32;;
76194;SDS011;64964;48.694;21.206;2023-03-01T07:49:05;9.87;;;5.80;;
76194;SDS011;64964;48.694;21.206;2023-03-01T07:51:31;9.30;;;5.50;;
76194;SDS011;64964;48.694;21.206;2023-03-01T07:53:56;10.40;;;6.15;;
76194;SDS011;64964;48.694;21.206;2023-03-01T07:56:21;10.87;;;5.70;;
76194;SDS011;64964;48.694;21.206;2023-03-01T07:58:47;8.90;;;5.60;;
76194;SDS011;64964;48.694;21.206;2023-03-01T08:01:14;8.27;;;5.80;;
76194;SDS011;64964;48.694;21.206;2023-03-01T08:03:41;8.98;;;5.97;;
76194;SDS011;64964;48.694;21.206;2023-03-01T08:06:08;8.45;;;5.57;;
76194;SDS011;64964;48.694;21.206;2023-03-01T08:08:35;8.60;;;5.40;;
76194;SDS011;64964;48.694;21.206;2023-03-01T08:11:02;11.20;;;6.00;;
76194;SDS011;64964;48.694;21.206;2023-03-01T08:13:28;9.00;;;5.72;;
76194;SDS011;64964;48.694;21.206;2023-03-01T08:15:54;9.15;;;5.57;;
76194;SDS011;64964;48.694;21.206;2023-03-01T08:18:20;8.37;;;5.30;;
76194;SDS011;64964;48.694;21.206;2023-03-01T08:20:46;9.10;;;5.75;;
76194;SDS011;64964;48.694;21.206;2023-03-01T08:23:11;9.13;;;5.50;;
76194;SDS011;64964;48.694;21.206;2023-03-01T08:25:37;7.38;;;5.40;;
76194;SDS011;64964;48.694;21.206;2023-03-01T08:28:03;9.23;;;5.93;;
76194;SDS011;64964;48.694;21.206;2023-03-01T08:30:29;11.10;;;5.93;;
76194;SDS011;64964;48.694;21.206;2023-03-01T08:32:55;6.97;;;5.70;;
76194;SDS011;64964;48.694;21.206;2023-03-01T08:35:20;9.73;;;6.13;;
76194;SDS011;64964;48.694;21.206;2023-03-01T08:37:46;15.37;;;5.70;;
76194;SDS011;64964;48.694;21.206;2023-03-01T08:40:12;7.50;;;5.72;;
76194;SDS011;64964;48.694;21.206;2023-03-01T08:42:38;9.60;;;5.65;;
76194;SDS011;64964;48.694;21.206;2023-03-01T08:45:05;7.85;;;5.90;;
76194;SDS011;64964;48.694;21.206;2023-03-01T08:47:31;8.47;;;6.20;;
76194;SDS011;64964;48.694;21.206;2023-03-01T08:49:58;7.75;;;5.38;;
76194;SDS011;64964;48.694;21.206;2023-03-01T08:52:24;9.18;;;6.00;;
76194;SDS011;64964;48.694;21.206;2023-03-01T08:54:49;8.73;;;5.90;;
76194;SDS011;64964;48.694;21.206;2023-03-01T08:57:15;6.60;;;5.32;;
76194;SDS011;64964;48.694;21.206;2023-03-01T08:59:40;9.07;;;6.33;;
76194;SDS011;64964;48.694;21.206;2023-03-01T09:02:10;7.25;;;5.22;;
76194;SDS011;64964;48.694;21.206;2023-03-01T09:04:38;8.57;;;5.70;;
76194;SDS011;64964;48.694;21.206;2023-03-01T09:07:03;10.77;;;5.50;;
76194;SDS011;64964;48.694;21.206;2023-03-01T09:09:29;7.63;;;5.43;;
76194;SDS011;64964;48.694;21.206;2023-03-01T09:11:55;7.43;;;5.03;;
76194;SDS011;64964;48.694;21.206;2023-03-01T09:14:20;7.63;;;5.20;;
76194;SDS011;64964;48.694;21.206;2023-03-01T09:16:45;8.30;;;5.40;;
76194;SDS011;64964;48.694;21.206;2023-03-01T09:19:11;6.43;;;5.28;;
76194;SDS011;64964;48.694;21.206;2023-03-01T09:21:36;6.63;;;4.40;;
76194;SDS011;64964;48.694;21.206;2023-03-01T09:24:02;6.18;;;4.93;;
76194;SDS011;64964;48.694;21.206;2023-03-01T09:26:27;6.20;;;4.90;;
76194;SDS011;64964;48.694;21.206;2023-03-01T09:28:54;7.37;;;4.93;;
76194;SDS011;64964;48.694;21.206;2023-03-01T09:31:21;6.63;;;4.90;;
76194;SDS011;64964;48.694;21.206;2023-03-01T09:33:48;7.03;;;4.78;;
76194;SDS011;64964;48.694;21.206;2023-03-01T09:36:16;6.93;;;4.65;;
76194;SDS011;64964;48.694;21.206;2023-03-01T09:38:43;7.10;;;4.67;;
76194;SDS011;64964;48.694;21.206;2023-03-01T09:44:15;8.90;;;5.20;;
76194;SDS011;64964;48.694;21.206;2023-03-01T09:46:43;9.57;;;5.55;;
76194;SDS011;64964;48.694;21.206;2023-03-01T09:49:11;12.38;;;5.60;;
76194;SDS011;64964;48.694;21.206;2023-03-01T09:51:47;12.90;;;5.90;;
76194;SDS011;64964;48.694;21.206;2023-03-01T09:54:20;8.02;;;5.30;;
76194;SDS011;64964;48.694;21.206;2023-03-01T09:56:46;7.15;;;4.90;;
76194;SDS011;64964;48.694;21.206;2023-03-01T09:59:26;9.33;;;4.90;;
76194;SDS011;64964;48.694;21.206;2023-03-01T10:04:41;9.40;;;5.43;;
76194;SDS011;64964;48.694;21.206;2023-03-01T10:07:27;6.70;;;5.03;;
76194;SDS011;64964;48.694;21.206;2023-03-01T10:10:05;9.60;;;4.88;;
76194;SDS011;64964;48.694;21.206;2023-03-01T10:12:36;7.00;;;4.90;;
76194;SDS011;64964;48.694;21.206;2023-03-01T10:23:03;7.35;;;4.30;;
76194;SDS011;64964;48.694;21.206;2023-03-01T10:30:46;7.50;;;4.50;;
76194;SDS011;64964;48.694;21.206;2023-03-01T10:33:16;6.85;;;4.43;;
76194;SDS011;64964;48.694;21.206;2023-03-01T10:35:45;6.72;;;4.20;;
76194;SDS011;64964;48.694;21.206;2023-03-01T10:38:12;8.07;;;4.20;;
76194;SDS011;64964;48.694;21.206;2023-03-01T10:46:32;5.43;;;4.15;;
76194;SDS011;64964;48.694;21.206;2023-03-01T10:51:46;6.83;;;4.10;;
76194;SDS011;64964;48.694;21.206;2023-03-01T10:54:18;5.80;;;3.65;;
76194;SDS011;64964;48.694;21.206;2023-03-01T10:56:54;5.32;;;4.00;;
76194;SDS011;64964;48.694;21.206;2023-03-01T10:59:23;4.93;;;3.80;;
76194;SDS011;64964;48.694;21.206;2023-03-01T11:04:38;5.03;;;3.67;;
76194;SDS011;64964;48.694;21.206;2023-03-01T11:07:04;5.67;;;3.30;;
76194;SDS011;64964;48.694;21.206;2023-03-01T11:09:32;8.43;;;3.50;;
76194;SDS011;64964;48.694;21.206;2023-03-01T11:12:05;5.70;;;4.00;;
76194;SDS011;64964;48.694;21.206;2023-03-01T11:14:46;7.75;;;4.65;;
76194;SDS011;64964;48.694;21.206;2023-03-01T11:19:39;8.35;;;4.20;;
76194;SDS011;64964;48.694;21.206;2023-03-01T11:22:11;5.37;;;4.30;;
76194;SDS011;64964;48.694;21.206;2023-03-01T11:24:43;6.82;;;4.70;;
76194;SDS011;64964;48.694;21.206;2023-03-01T11:27:19;8.03;;;4.37;;
76194;SDS011;64964;48.694;21.206;2023-03-01T11:30:13;5.33;;;3.77;;
76194;SDS011;64964;48.694;21.206;2023-03-01T11:32:45;7.25;;;3.90;;
76194;SDS011;64964;48.694;21.206;2023-03-01T11:35:19;6.47;;;3.90;;
76194;SDS011;64964;48.694;21.206;2023-03-01T11:37:58;6.55;;;4.10;;
76194;SDS011;64964;48.694;21.206;2023-03-01T11:40:35;4.78;;;3.97;;
76194;SDS011;64964;48.694;21.206;2023-03-01T11:43:28;6.75;;;4.15;;
76194;SDS011;64964;48.694;21.206;2023-03-01T11:51:32;4.23;;;3.10;;
76194;SDS011;64964;48.694;21.206;2023-03-01T11:54:01;5.60;;;3.63;;
76194;SDS011;64964;48.694;21.206;2023-03-01T11:56:40;6.15;;;3.40;;
76194;SDS011;64964;48.694;21.206;2023-03-01T12:11:32;5.25;;;3.40;;
76194;SDS011;64964;48.694;21.206;2023-03-01T12:22:55;5.55;;;3.00;;
76194;SDS011;64964;48.694;21.206;2023-03-01T12:28:23;6.13;;;3.20;;
76194;SDS011;64964;48.694;21.206;2023-03-01T12:33:28;6.03;;;3.17;;
76194;SDS011;64964;48.694;21.206;2023-03-01T12:36:31;5.40;;;3.33;;
76194;SDS011;64964;48.694;21.206;2023-03-01T12:44:35;5.22;;;3.35;;
76194;SDS011;64964;48.694;21.206;2023-03-01T12:47:38;5.33;;;2.80;;
76194;SDS011;64964;48.694;21.206;2023-03-01T12:53:07;4.07;;;2.95;;
76194;SDS011;64964;48.694;21.206;2023-03-01T12:56:02;4.63;;;2.92;;
76194;SDS011;64964;48.694;21.206;2023-03-01T13:04:20;5.57;;;2.83;;
76194;SDS011;64964;48.694;21.206;2023-03-01T13:09:49;4.70;;;2.80;;
76194;SDS011;64964;48.694;21.206;2023-03-01T13:18:01;5.15;;;2.80;;
76194;SDS011;64964;48.694;21.206;2023-03-01T13:33:46;4.75;;;2.83;;
76194;SDS011;64964;48.694;21.206;2023-03-01T13:42:25;5.03;;;2.60;;
76194;SDS011;64964;48.694;21.206;2023-03-01T13:44:26;4.70;;;2.88;;
76194;SDS011;64964;48.694;21.206;2023-03-01T13:49:48;4.72;;;3.10;;
76194;SDS011;64964;48.694;21.206;2023-03-01T13:55:51;4.90;;;2.80;;
76194;SDS011;64964;48.694;21.206;2023-03-01T13:58:21;4.88;;;2.90;;
76194;SDS011;64964;48.694;21.206;2023-03-01T14:01:06;5.80;;;3.05;;
76194;SDS011;64964;48.694;21.206;2023-03-01T14:03:34;5.82;;;3.03;;
76194;SDS011;64964;48.694;21.206;2023-03-01T14:06:13;5.85;;;2.70;;
76194;SDS011;64964;48.694;21.206;2023-03-01T14:08:40;6.07;;;2.83;;
76194;SDS011;64964;48.694;21.206;2023-03-01T14:18:57;6.28;;;3.08;;
76194;SDS011;64964;48.694;21.206;2023-03-01T14:21:45;6.60;;;2.93;;
76194;SDS011;64964;48.694;21.206;2023-03-01T14:24:29;5.53;;;3.22;;
76194;SDS011;64964;48.694;21.206;2023-03-01T14:26:57;5.95;;;3.42;;
76194;SDS011;64964;48.694;21.206;2023-03-01T14:29:43;6.95;;;3.53;;
76194;SDS011;64964;48.694;21.206;2023-03-01T14:34:38;6.77;;;3.80;;
76194;SDS011;64964;48.694;21.206;2023-03-01T14:37:17;8.05;;;4.50;;
76194;SDS011;64964;48.694;21.206;2023-03-01T14:39:46;9.63;;;3.97;;
76194;SDS011;64964;48.694;21.206;2023-03-01T14:42:13;8.40;;;3.95;;
76194;SDS011;64964;48.694;21.206;2023-03-01T14:44:40;9.05;;;4.53;;
76194;SDS011;64964;48.694;21.206;2023-03-01T14:47:15;7.90;;;3.87;;
76194;SDS011;64964;48.694;21.206;2023-03-01T14:49:48;6.45;;;3.67;;
76194;SDS011;64964;48.694;21.206;2023-03-01T14:52:19;6.25;;;3.65;;
76194;SDS011;64964;48.694;21.206;2023-03-01T14:54:48;7.35;;;3.97;;
76194;SDS011;64964;48.694;21.206;2023-03-01T14:57:20;7.85;;;3.72;;
76194;SDS011;64964;48.694;21.206;2023-03-01T14:59:51;4.77;;;2.83;;
76194;SDS011;64964;48.694;21.206;2023-03-01T15:02:20;6.82;;;3.20;;
76194;SDS011;64964;48.694;21.206;2023-03-01T15:04:49;4.53;;;2.83;;
76194;SDS011;64964;48.694;21.206;2023-03-01T15:07:17;4.82;;;2.85;;
76194;SDS011;64964;48.694;21.206;2023-03-01T15:09:44;5.68;;;2.58;;
76194;SDS011;64964;48.694;21.206;2023-03-01T15:14:54;5.93;;;2.88;;
76194;SDS011;64964;48.694;21.206;2023-03-01T15:17:33;5.70;;;2.97;;
76194;SDS011;64964;48.694;21.206;2023-03-01T15:20:02;5.53;;;2.58;;
76194;SDS011;64964;48.694;21.206;2023-03-01T15:22:30;4.32;;;2.45;;
76194;SDS011;64964;48.694;21.206;2023-03-01T15:24:56;6.30;;;2.97;;
76194;SDS011;64964;48.694;21.206;2023-03-01T15:27:23;6.45;;;3.08;;
76194;SDS011;64964;48.694;21.206;2023-03-01T15:29:51;10.83;;;3.40;;
76194;SDS011;64964;48.694;21.206;2023-03-01T15:34:54;7.78;;;3.55;;
76194;SDS011;64964;48.694;21.206;2023-03-01T15:40:25;7.43;;;3.70;;
76194;SDS011;64964;48.694;21.206;2023-03-01T15:43:05;6.30;;;3.30;;
76194;SDS011;64964;48.694;21.206;2023-03-01T15:45:32;7.28;;;3.25;;
76194;SDS011;64964;48.694;21.206;2023-03-01T15:48:04;9.55;;;3.90;;
76194;SDS011;64964;48.694;21.206;2023-03-01T15:50:42;9.70;;;3.63;;
76194;SDS011;64964;48.694;21.206;2023-03-01T15:53:12;9.68;;;3.83;;
76194;SDS011;64964;48.694;21.206;2023-03-01T15:55:40;7.35;;;3.97;;
76194;SDS011;64964;48.694;21.206;2023-03-01T15:58:08;7.50;;;3.90;;
76194;SDS011;64964;48.694;21.206;2023-03-01T16:00:38;7.37;;;4.00;;
76194;SDS011;64964;48.694;21.206;2023-03-01T16:03:04;9.52;;;3.92;;
76194;SDS011;64964;48.694;21.206;2023-03-01T16:05:33;6.97;;;4.00;;
76194;SDS011;64964;48.694;21.206;2023-03-01T16:08:01;8.90;;;4.25;;
76194;SDS011;64964;48.694;21.206;2023-03-01T16:10:27;8.90;;;4.60;;
76194;SDS011;64964;48.694;21.206;2023-03-01T16:12:53;9.80;;;4.40;;
76194;SDS011;64964;48.694;21.206;2023-03-01T16:15:25;8.90;;;4.68;;
76194;SDS011;64964;48.694;21.206;2023-03-01T16:17:52;8.63;;;4.40;;
76194;SDS011;64964;48.694;21.206;2023-03-01T16:20:18;8.67;;;4.30;;
76194;SDS011;64964;48.694;21.206;2023-03-01T16:22:44;9.30;;;4.50;;
76194;SDS011;64964;48.694;21.206;2023-03-01T16:25:11;8.97;;;4.43;;
76194;SDS011;64964;48.694;21.206;2023-03-01T16:27:37;9.70;;;4.40;;
76194;SDS011;64964;48.694;21.206;2023-03-01T16:30:04;10.18;;;4.75;;
76194;SDS011;64964;48.694;21.206;2023-03-01T16:32:30;9.32;;;4.68;;
76194;SDS011;64964;48.694;21.206;2023-03-01T16:34:56;10.67;;;4.83;;
76194;SDS011;64964;48.694;21.206;2023-03-01T16:37:21;10.17;;;4.53;;
76194;SDS011;64964;48.694;21.206;2023-03-01T16:39:47;11.93;;;4.70;;
76194;SDS011;64964;48.694;21.206;2023-03-01T16:42:15;9.17;;;4.43;;
76194;SDS011;64964;48.694;21.206;2023-03-01T16:44:41;12.85;;;4.82;;
76194;SDS011;64964;48.694;21.206;2023-03-01T16:47:07;11.80;;;5.80;;
76194;SDS011;64964;48.694;21.206;2023-03-01T16:49:32;15.02;;;7.32;;
76194;SDS011;64964;48.694;21.206;2023-03-01T16:51:57;12.90;;;5.93;;
76194;SDS011;64964;48.694;21.206;2023-03-01T16:54:24;26.15;;;12.00;;
76194;SDS011;64964;48.694;21.206;2023-03-01T16:56:49;14.03;;;6.13;;
76194;SDS011;64964;48.694;21.206;2023-03-01T16:59:14;14.43;;;6.93;;